Latest Weather Observations for Devonport Airport

IDT60801

Issued at 9:02 am EST Thursday 28 July 2016 (issued every 30 minutes, with the page automatically refreshed every 10 minutes)

About weather observations | Map of weather stations | Latest weather observations for TAS | Other Formats
Station Details ID: 091126 Name: DEVONPORT AIRPORT Lat: -41.17 Lon: 146.43 Height: 8.0 m
Data from the previous 72 hours. | See also: Recent months at Devonport Airport
Date/Time
EST
Temp
°C
App
Temp
°C
Dew
Point
°C
Rel
Hum
%
Delta-T
°C
Wind Press
QNH
hPa
Press
MSL
hPa
Rain since
9am
mm
Dir  Spd
km/h
Gust
km/h
Spd
kts
Gust
kts
28/09:00am 12.0 5.4 8.5 79 1.7 WNW 33 43 18 23 1012.3 1012.4 0.0
28/08:30am 11.5 5.1 8.4 81 1.5 WNW 32 44 17 24 1012.2 1012.3 0.0
28/08:00am 11.2 4.7 8.1 81 1.5 WNW 32 43 17 23 1011.9 1012.0 0.0
28/07:30am 10.9 3.8 8.0 82 1.4 W 35 44 19 24 1011.5 1011.6 0.0
28/07:00am 11.2 3.4 8.1 81 1.5 WNW 39 48 21 26 1011.4 1011.5 0.0
28/06:30am 11.3 3.9 8.3 82 1.5 WNW 37 48 20 26 1011.2 1011.3 0.0
28/06:00am 11.2 3.8 8.4 83 1.4 WNW 37 46 20 25 1011.1 1011.2 0.0
28/05:30am 11.1 4.1 8.3 83 1.4 WNW 35 43 19 23 1011.1 1011.2 0.0
28/05:00am 10.9 4.3 8.5 85 1.2 WNW 33 43 18 23 1011.1 1011.2 0.0
28/04:30am 10.6 4.1 8.0 84 1.3 WNW 32 41 17 22 1011.4 1011.5 0.0
28/04:00am 10.2 4.4 7.8 85 1.2 WNW 28 37 15 20 1011.7 1011.8 0.0
28/03:30am 9.9 3.9 7.2 83 1.3 WNW 28 33 15 18 1011.6 1011.7 0.0
28/03:00am 9.9 3.8 6.8 81 1.5 WNW 28 33 15 18 1012.2 1012.3 0.0
28/02:30am 9.7 3.6 6.4 80 1.5 W 28 35 15 19 1011.8 1011.9 0.0
28/02:00am 9.8 3.8 7.2 84 1.2 W 28 37 15 20 1012.0 1012.1 0.0
28/01:30am 9.5 5.6 7.1 85 1.1 W 17 24 9 13 1012.0 1012.1 0.0
28/01:00am 9.1 5.9 6.9 86 1.0 W 13 20 7 11 1012.1 1012.2 0.0
28/12:30am 8.9 5.2 6.3 84 1.2 W 15 19 8 10 1012.1 1012.2 0.0
28/12:00am 9.4 4.5 6.8 84 1.2 W 22 28 12 15 1012.1 1012.2 0.0
 
Date/Time
EST
Temp
°C
App
Temp
°C
Dew
Point
°C
Rel
Hum
%
Delta-T
°C
Wind Press
QNH
hPa
Press
MSL
hPa
Rain since
9am
mm
Dir  Spd
km/h
Gust
km/h
Spd
kts
Gust
kts
27/11:30pm 10.5 4.4 8.3 86 1.1 W 30 37 16 20 1011.8 1011.9 0.0
27/11:00pm 10.4 5.4 8.2 86 1.1 W 24 28 13 15 1011.7 1011.8 0.0
27/10:30pm 10.6 5.0 7.1 79 1.7 WNW 26 32 14 17 1011.4 1011.5 0.0
27/10:00pm 10.9 4.3 7.6 80 1.6 WNW 32 41 17 22 1011.0 1011.1 0.0
27/09:30pm 10.9 5.1 8.1 83 1.4 W 28 35 15 19 1010.9 1011.0 0.0
27/09:00pm 10.5 4.0 8.1 85 1.2 WNW 32 41 17 22 1010.6 1010.7 0.0
27/08:30pm 10.2 2.4 8.3 88 0.9 WNW 39 52 21 28 1009.8 1009.9 0.0
27/08:00pm 9.7 1.0 7.8 88 0.9 WNW 43 54 23 29 1009.4 1009.5 0.0
27/07:30pm 9.6 1.2 7.5 87 1.0 WNW 41 52 22 28 1009.3 1009.4 0.0
27/07:00pm 9.5 0.4 6.9 84 1.2 WNW 44 56 24 30 1009.1 1009.2 0.0
27/06:30pm 9.6 0.6 6.3 80 1.5 WNW 43 54 23 29 1008.8 1008.9 0.0
27/06:00pm 9.5 0.8 5.9 78 1.7 WNW 41 48 22 26 1009.0 1009.1 0.0
27/05:30pm 9.3 -0.1 5.5 77 1.7 WNW 44 56 24 30 1008.5 1008.6 0.0
27/05:00pm 9.3 0.0 5.1 75 1.9 WNW 43 54 23 29 1008.0 1008.1 0.0
27/04:30pm 9.4 1.4 4.0 69 2.4 WNW 35 48 19 26 1008.4 1008.5 0.0
27/04:00pm 9.7 2.7 4.3 69 2.4 W 30 41 16 22 1008.8 1008.9 0.0
27/03:30pm 9.6 1.1 3.4 65 2.7 W 37 50 20 27 1008.7 1008.8 0.0
27/03:05pm 10.2 2.8 4.1 66 2.7 W 32 50 17 27 1008.5 1008.6 0.0
27/03:00pm 10.1 2.4 3.4 63 2.9 W 33 50 18 27 1008.5 1008.6 0.0
27/02:34pm 9.4 2.0 4.2 70 2.3 W 32 52 17 28 1008.6 1008.7 0.0
27/02:30pm 10.0 3.0 4.0 66 2.6 W 30 37 16 20 1008.6 1008.7 0.0
27/02:00pm 10.0 2.6 4.0 66 2.7 W 32 44 17 24 1008.2 1008.3 0.0
27/01:57pm 9.9 2.2 3.4 64 2.8 W 33 44 18 24 1008.3 1008.4 0.0
27/01:30pm 9.7 4.4 3.2 64 2.8 WSW 20 32 11 17 1008.3 1008.4 0.0
27/01:00pm 10.2 3.8 3.3 62 3.0 WNW 26 33 14 18 1008.2 1008.3 0.0
27/12:30pm 9.9 2.7 3.0 62 3.0 W 30 41 16 22 1008.4 1008.5 0.0
27/12:00pm 9.6 1.9 2.5 61 3.0 W 32 39 17 21 1008.5 1008.6 0.0
27/11:30am 9.6 2.7 2.5 61 3.0 W 28 39 15 21 1008.4 1008.5 0.0
27/11:00am 9.2 1.9 2.5 63 2.8 W 30 39 16 21 1008.2 1008.3 0.0
27/10:30am 9.2 4.0 2.5 63 2.8 W 19 22 10 12 1007.8 1007.9 0.0
27/10:00am 8.5 3.2 1.9 63 2.7 WNW 19 22 10 12 1007.3 1007.4 0.0
27/09:30am 8.2 3.2 1.1 61 2.9 WSW 17 22 9 12 1007.0 1007.1 0.0
27/09:00am 7.6 1.1 0.3 60 2.9 W 24 30 13 16 1006.6 1006.7 19.2
27/08:30am 7.0 1.5 1.7 69 2.1 WNW 20 28 11 15 1005.8 1005.9 19.2
27/08:00am 4.5 1.0 1.4 80 1.2 SW 9 11 5 6 1005.0 1005.1 19.2
27/07:30am 4.3 1.3 1.0 79 1.3 WSW 6 9 3 5 1004.4 1004.5 19.2
27/07:00am 5.8 2.0 1.7 75 1.7 WNW 11 15 6 8 1003.2 1003.2 19.2
27/06:30am 6.0 1.1 2.3 77 1.5 W 17 26 9 14 1002.7 1002.7 19.0
27/06:00am 6.5 0.5 3.1 79 1.4 WSW 24 30 13 16 1001.6 1001.6 19.0
27/05:30am 6.5 1.4 4.3 86 0.9 W 20 28 11 15 1000.6 1000.6 19.0
27/05:00am 7.7 2.6 5.8 88 0.9 W 22 32 12 17 999.7 999.7 19.0
27/04:45am 8.4 2.7 6.9 90 0.7 W 26 33 14 18 999.2 999.2 19.0
27/04:30am 8.4 3.6 7.2 92 0.6 W 22 32 12 17 999.0 999.0 19.0
27/04:26am 8.2 3.7 7.0 92 0.6 W 20 26 11 14 998.9 998.9 19.0
27/04:00am 9.0 2.3 7.5 90 0.7 WNW 32 39 17 21 998.8 998.8 19.0
27/03:30am 9.2 2.0 7.6 90 0.8 WNW 35 46 19 25 998.4 998.4 19.0
27/03:00am 9.2 2.5 7.5 89 0.8 NW 32 43 17 23 998.4 998.4 19.0
27/02:38am 9.1 2.9 7.7 91 0.7 NW 30 39 16 21 998.5 998.5 19.0
27/02:30am 8.9 3.4 7.5 91 0.7 WNW 26 33 14 18 998.6 998.6 19.0
27/02:00am 8.5 2.6 7.3 92 0.6 W 28 33 15 18 998.7 998.7 19.0
27/01:47am 8.7 1.8 7.2 90 0.7 WNW 33 46 18 25 998.9 998.9 19.0
27/01:30am 8.8 0.4 7.3 90 0.7 WNW 41 54 22 29 998.9 998.9 18.8
27/01:21am 8.7 0.2 7.0 89 0.8 WNW 41 52 22 28 999.0 999.0 18.6
27/01:04am 8.2 0.9 7.1 93 0.5 WNW 35 57 19 31 999.2 999.2 18.6
27/01:00am 8.0 1.1 7.1 94 0.4 WNW 33 46 18 25 999.1 999.1 18.2
27/12:51am 7.6 1.1 6.5 93 0.5 WNW 30 39 16 21 999.5 999.5 16.8
27/12:30am 6.7 2.5 5.8 94 0.4 W 17 24 9 13 999.8 999.8 15.2
27/12:09am 6.8 3.4 5.9 94 0.4 WSW 13 20 7 11 1000.1 1000.1 13.2
27/12:00am 6.8 3.4 5.9 94 0.4 WSW 13 20 7 11 1000.3 1000.3 12.8
 
Date/Time
EST
Temp
°C
App
Temp
°C
Dew
Point
°C
Rel
Hum
%
Delta-T
°C
Wind Press
QNH
hPa
Press
MSL
hPa
Rain since
9am
mm
Dir  Spd
km/h
Gust
km/h
Spd
kts
Gust
kts
26/11:51pm 7.0 2.9 6.1 94 0.4 WSW 17 20 9 11 1000.2 1000.2 12.0
26/11:47pm 6.9 3.5 6.0 94 0.4 WSW 13 19 7 10 1000.3 1000.3 11.4
26/11:30pm 6.9 3.1 5.8 93 0.5 W 15 20 8 11 1000.4 1000.4 10.0
26/11:24pm 6.9 3.1 5.7 92 0.5 W 15 20 8 11 1000.5 1000.5 9.2
26/11:00pm 7.1 2.5 5.6 90 0.7 W 19 24 10 13 1000.9 1000.9 7.2
26/10:30pm 7.6 1.7 5.9 89 0.8 WNW 26 35 14 19 1001.0 1001.0 6.8
26/10:03pm 7.4 2.5 6.7 95 0.3 W 22 30 12 16 1001.4 1001.4 6.6
26/10:00pm 7.4 2.5 6.7 95 0.3 W 22 28 12 15 1001.4 1001.4 6.4
26/09:45pm 7.0 3.3 6.4 96 0.3 W 15 20 8 11 1001.7 1001.7 5.8
26/09:30pm 6.6 3.2 5.9 95 0.3 WSW 13 19 7 10 1001.6 1001.6 5.4
26/09:25pm 6.6 3.2 5.9 95 0.3 WSW 13 17 7 9 1001.7 1001.7 5.0
26/09:12pm 6.6 3.6 5.9 95 0.3 WSW 11 17 6 9 1001.6 1001.6 4.6
26/09:00pm 6.9 3.5 6.0 94 0.4 W 13 17 7 9 1001.8 1001.8 4.2
26/08:41pm 7.0 3.2 5.8 92 0.5 WNW 15 20 8 11 1002.1 1002.1 4.0
26/08:36pm 7.0 2.8 5.8 92 0.5 WNW 17 20 9 11 1002.1 1002.1 3.8
26/08:30pm 7.1 2.9 5.7 91 0.6 WNW 17 22 9 12 1002.2 1002.2 3.4
26/08:00pm 7.0 1.4 5.2 88 0.8 W 24 32 13 17 1002.4 1002.4 2.8
26/07:30pm 6.9 1.3 5.2 89 0.7 W 24 33 13 18 1002.6 1002.6 2.8
26/07:00pm 6.9 2.1 5.4 90 0.7 W 20 30 11 16 1002.8 1002.8 2.6
26/06:30pm 6.8 1.9 5.1 89 0.7 W 20 30 11 16 1002.9 1002.9 2.4
26/06:00pm 7.0 2.1 5.3 89 0.8 W 20 30 11 16 1002.5 1002.5 2.0
26/05:41pm 7.1 0.5 4.4 83 1.2 W 28 50 15 27 1002.6 1002.6 1.2
26/05:30pm 7.7 2.8 5.3 85 1.1 W 20 28 11 15 1002.5 1002.5 1.2
26/05:00pm 7.5 2.6 5.0 84 1.1 W 20 32 11 17 1002.7 1002.7 0.8
26/04:30pm 9.2 1.1 5.2 76 1.8 WNW 37 48 20 26 1002.5 1002.5 0.6
26/04:02pm 8.8 -0.2 4.8 76 1.8 WNW 41 59 22 32 1002.7 1002.7 0.6
26/04:00pm 8.8 -0.5 4.8 76 1.8 WNW 43 59 23 32 1002.7 1002.7 0.6
26/03:30pm 8.8 -1.1 4.6 75 1.9 WNW 46 57 25 31 1002.9 1002.9 0.6
26/03:00pm 8.8 -0.6 4.4 74 1.9 WNW 43 52 23 28 1003.1 1003.1 0.6
26/02:45pm 8.9 1.6 4.7 75 1.9 WNW 32 50 17 27 1003.3 1003.3 0.6
26/02:30pm 8.8 0.9 4.2 73 2.0 W 35 61 19 33 1003.5 1003.5 0.6
26/02:01pm 9.7 2.3 5.1 73 2.1 WNW 33 54 18 29 1003.6 1003.7 0.6
26/02:00pm 9.7 2.5 5.1 73 2.1 WNW 32 48 17 26 1003.6 1003.7 0.6
26/01:30pm 9.3 3.7 5.3 76 1.8 W 24 30 13 16 1003.7 1003.8 0.6
26/01:00pm 8.1 -2.1 3.2 71 2.1 WNW 46 63 25 34 1003.7 1003.8 0.6
26/12:56pm 7.4 -3.4 4.2 80 1.4 WNW 50 70 27 38 1004.0 1004.1 0.6
26/12:50pm 7.9 0.0 4.5 79 1.5 WNW 35 70 19 38 1003.8 1003.9 0.6
26/12:48pm 8.5 2.0 4.9 78 1.6 WNW 28 63 15 34 1003.8 1003.9 0.6
26/12:30pm 8.4 3.1 5.0 79 1.5 W 22 28 12 15 1004.0 1004.1 0.6
26/12:29pm 8.4 3.1 4.8 78 1.6 W 22 28 12 15 1004.0 1004.1 0.6
26/12:10pm 7.1 -1.6 3.9 80 1.4 WNW 39 61 21 33 1004.4 1004.5 0.4
26/12:07pm 7.9 -0.1 3.8 75 1.8 WNW 35 61 19 33 1004.2 1004.3 0.0
26/12:00pm 9.3 1.0 4.3 71 2.2 WNW 37 46 20 25 1004.0 1004.1 0.0
26/11:30am 9.6 1.7 4.6 71 2.2 WNW 35 44 19 24 1004.1 1004.2 0.0
26/11:00am 8.6 -0.2 3.8 72 2.1 WNW 39 48 21 26 1004.0 1004.1 0.0
26/10:30am 8.4 1.3 3.5 71 2.1 WNW 30 39 16 21 1003.8 1003.9 0.0
26/10:00am 7.8 0.1 2.5 69 2.2 WNW 32 41 17 22 1003.4 1003.4 0.0
26/09:30am 7.4 -0.2 2.9 73 1.9 WNW 32 39 17 21 1003.3 1003.3 0.0
26/09:00am 6.8 -0.4 2.9 76 1.6 WNW 30 39 16 21 1003.3 1003.3 6.6
26/08:30am 5.9 -1.5 1.8 75 1.6 W 30 35 16 19 1002.9 1002.9 6.6
26/08:00am 6.4 -1.8 2.7 77 1.5 WNW 35 44 19 24 1002.5 1002.5 6.6
26/07:30am 5.4 -1.2 1.9 78 1.4 W 26 33 14 18 1002.0 1002.0 6.6
26/07:00am 5.7 -1.6 2.4 79 1.4 W 30 39 16 21 1001.7 1001.7 6.6
26/06:30am 5.5 -2.2 2.3 80 1.3 W 32 43 17 23 1000.7 1000.7 6.6
26/06:00am 5.4 -1.1 2.8 83 1.1 W 26 32 14 17 1000.5 1000.5 6.6
26/05:30am 5.0 -1.9 2.4 83 1.1 W 28 46 15 25 999.7 999.7 6.4
26/05:03am 4.8 -3.1 2.2 83 1.0 WSW 33 59 18 32 999.6 999.6 6.4
26/05:00am 5.0 -2.3 2.2 82 1.1 WSW 30 59 16 32 999.6 999.6 6.4
26/04:59am 5.1 -1.9 2.1 81 1.2 WSW 28 59 15 32 999.6 999.6 6.4
26/04:30am 5.2 -0.5 2.9 85 0.9 W 22 32 12 17 998.6 998.6 6.4
26/04:00am 5.3 -2.5 2.7 83 1.1 W 33 46 18 25 998.3 998.3 6.4
26/03:45am 5.8 -2.0 3.1 83 1.1 W 33 59 18 32 998.2 998.2 6.0
26/03:30am 6.4 -1.7 3.0 79 1.4 W 35 46 19 25 997.8 997.8 5.6
26/03:00am 7.4 -2.1 4.0 79 1.5 WNW 43 52 23 28 997.3 997.3 5.6
26/02:30am 6.7 -3.1 3.3 79 1.4 WNW 44 59 24 32 997.0 997.0 5.6
26/02:00am 6.7 -1.8 3.1 78 1.5 W 37 52 20 28 997.0 997.0 5.6
26/01:30am 6.6 -2.3 3.2 79 1.4 WNW 39 54 21 29 996.5 996.5 5.6
26/01:24am 6.8 -1.3 3.4 79 1.4 WNW 35 52 19 28 996.4 996.4 5.6
26/01:00am 5.9 -1.3 2.9 81 1.3 W 30 39 16 21 996.1 996.1 5.6
26/12:30am 5.5 -4.9 2.2 79 1.3 W 46 67 25 36 996.1 996.1 5.6
26/12:02am 6.5 -3.8 2.9 78 1.5 WNW 46 65 25 35 995.8 995.8 5.4
26/12:00am 6.7 -3.9 3.0 77 1.6 WNW 48 65 26 35 995.7 995.7 5.4
 
Date/Time
EST
Temp
°C
App
Temp
°C
Dew
Point
°C
Rel
Hum
%
Delta-T
°C
Wind Press
QNH
hPa
Press
MSL
hPa
Rain since
9am
mm
Dir  Spd
km/h
Gust
km/h
Spd
kts
Gust
kts
25/11:30pm 7.3 -1.4 3.9 79 1.5 W 39 50 21 27 995.6 995.6 5.4
25/11:00pm 7.2 -2.5 4.0 80 1.4 WNW 44 54 24 29 995.0 995.0 5.4
25/10:42pm 7.2 -1.1 4.3 82 1.3 W 37 54 20 29 994.8 994.8 5.4
25/10:36pm 6.6 -2.9 3.8 82 1.2 W 43 59 23 32 995.1 995.1 5.4
25/10:30pm 6.6 -5.5 3.0 78 1.5 W 56 85 30 46 995.4 995.4 5.4
25/10:04pm 7.7 -3.1 3.9 77 1.6 WNW 50 69 27 37 994.3 994.3 5.4
25/10:00pm 7.9 -4.1 3.9 76 1.7 WNW 56 70 30 38 994.2 994.2 5.4
25/09:37pm 8.6 -2.3 3.8 72 2.1 WNW 50 69 27 37 993.6 993.6 5.4
25/09:30pm 8.8 -1.8 5.0 77 1.7 WNW 50 67 27 36 993.6 993.6 5.4
25/09:14pm 8.3 -1.6 4.7 78 1.6 WNW 46 65 25 35 992.8 992.8 5.4
25/09:00pm 8.4 -1.9 4.6 77 1.7 WNW 48 65 26 35 993.5 993.5 5.4
25/08:48pm 8.5 -1.0 4.7 77 1.7 WNW 44 63 24 34 993.4 993.4 5.4
25/08:30pm 8.5 -1.4 4.7 77 1.7 W 46 61 25 33 992.9 992.9 5.4
25/08:00pm 9.1 -2.1 6.0 81 1.4 WNW 54 69 29 37 991.9 991.9 5.4
25/07:30pm 9.4 -2.1 7.2 86 1.0 WNW 57 78 31 42 992.2 992.2 5.4
25/07:19pm 9.9 -1.6 7.3 84 1.2 WNW 57 76 31 41 992.1 992.1 5.2
25/07:15pm 9.8 -2.5 7.1 83 1.3 NW 61 76 33 41 991.8 991.8 5.2
25/07:03pm 10.1 -1.2 8.0 87 1.0 NW 57 76 31 41 991.9 991.9 5.2
25/07:00pm 9.9 -1.4 7.8 87 1.0 NW 57 74 31 40 992.0 992.0 5.2
25/06:34pm 9.4 -1.9 8.0 91 0.7 NNW 57 76 31 41 992.7 992.7 4.6
25/06:30pm 9.4 -2.2 8.3 93 0.5 NNW 59 76 32 41 992.9 992.9 4.4
25/06:16pm 10.2 -0.8 9.0 92 0.6 NNW 57 76 31 41 992.9 992.9 2.2
25/06:06pm 9.8 -0.4 8.4 91 0.7 NNW 52 76 28 41 992.9 992.9 1.6
25/06:02pm 10.4 1.3 8.3 87 1.0 NNW 46 67 25 36 993.2 993.2 1.2
25/06:00pm 10.6 2.0 8.2 85 1.2 NNW 43 65 23 35 993.2 993.2 1.0
25/05:53pm 10.3 0.2 5.9 74 2.0 NNW 48 67 26 36 993.4 993.4 0.6
25/05:30pm 11.4 0.9 7.3 76 2.0 NNW 52 67 28 36 993.8 993.8 0.6
25/05:02pm 10.9 2.4 8.7 86 1.1 NNW 43 65 23 35 994.8 994.8 0.4
25/05:00pm 11.0 2.5 8.6 85 1.2 NNW 43 57 23 31 994.6 994.6 0.4
25/04:44pm 10.7 3.7 8.3 85 1.2 NNW 35 56 19 30 995.0 995.0 0.4
25/04:34pm 10.1 3.1 8.5 90 0.8 NNW 35 50 19 27 995.6 995.6 0.4
25/04:30pm 9.9 2.5 8.2 89 0.8 NNW 37 50 20 27 995.7 995.7 0.4
25/04:12pm 9.8 1.6 8.1 89 0.8 NNW 41 56 22 30 996.4 996.4 0.0
25/04:00pm 11.1 4.6 6.5 73 2.2 NW 30 39 16 21 996.4 996.4 0.0
25/03:30pm 11.3 4.1 6.0 70 2.5 NW 33 43 18 23 997.1 997.1 0.0
25/03:00pm 11.0 4.3 7.3 78 1.8 NW 32 43 17 23 997.8 997.8 0.0
25/02:30pm 11.0 4.6 7.1 77 1.9 NW 30 39 16 21 998.2 998.2 0.0
25/02:00pm 11.5 4.2 7.4 76 2.0 WNW 35 46 19 25 998.3 998.3 0.0
25/01:30pm 11.3 3.6 7.2 76 2.0 NW 37 48 20 26 998.5 998.5 0.0
25/01:00pm 11.8 5.5 9.0 83 1.4 NW 32 43 17 23 999.0 999.0 0.0
25/12:30pm 11.4 6.2 8.8 84 1.3 NW 26 32 14 17 999.7 999.7 0.0
25/12:11pm 11.6 6.8 8.8 83 1.4 NW 24 30 13 16 999.9 999.9 0.0
25/12:00pm 11.5 6.4 9.2 86 1.2 NW 26 32 14 17 1000.2 1000.2 0.0
25/11:30am 10.8 6.0 8.9 88 0.9 NW 24 30 13 16 1000.6 1000.6 0.0
25/11:11am 10.1 6.8 8.0 87 1.0 NW 15 19 8 10 1001.0 1001.0 0.0
25/11:00am 9.9 6.5 7.5 85 1.2 NW 15 20 8 11 1001.0 1001.0 0.0
25/10:59am 9.8 6.3 7.4 85 1.1 NW 15 20 8 11 1001.0 1001.0 0.0
25/10:39am 9.3 6.2 7.3 87 0.9 NW 13 17 7 9 1001.1 1001.1 0.0
25/10:30am 9.2 6.5 7.5 89 0.8 WNW 11 13 6 7 1001.2 1001.2 0.0
25/10:00am 8.5 6.5 7.1 91 0.7 WSW 7 11 4 6 1001.0 1001.0 0.0
25/09:30am 7.6 4.3 6.4 92 0.5 S 13 15 7 8 1000.6 1000.6 0.0

Other Formats:

Comma delimited format used in spreadsheet applications
http://www.bom.gov.au/fwo/IDT60801/IDT60801.95960.axf

JavaScript Object Notation format (JSON) in row-major order
http://www.bom.gov.au/fwo/IDT60801/IDT60801.95960.json